createdAt,value
2023-01-29T00:01:13.267Z,102133.03
2023-01-29T00:03:39.743Z,102127.97
2023-01-29T00:06:07.500Z,102122.00
2023-01-29T00:08:34.764Z,102113.47
2023-01-29T00:11:02.761Z,102114.25
2023-01-29T00:13:29.347Z,102108.22
2023-01-29T00:15:56.901Z,102116.88
2023-01-29T00:18:23.394Z,102119.44
2023-01-29T00:20:50.110Z,102122.88
2023-01-29T00:23:17.435Z,102127.16
2023-01-29T00:25:44.382Z,102117.75
2023-01-29T00:28:11.164Z,102113.47
2023-01-29T00:30:38.092Z,102103.16
2023-01-29T00:33:05.104Z,102110.06
2023-01-29T00:35:32.013Z,102103.19
2023-01-29T00:37:58.824Z,102105.78
2023-01-29T00:40:25.946Z,102110.13
2023-01-29T00:43:10.860Z,102101.53
2023-01-29T00:45:37.492Z,102088.63
2023-01-29T00:48:04.466Z,102081.81
2023-01-29T00:50:31.465Z,102077.53
2023-01-29T00:52:58.698Z,102077.56
2023-01-29T00:55:25.181Z,102085.28
2023-01-29T00:57:51.774Z,102088.69
2023-01-29T01:00:19.491Z,102085.25
2023-01-29T01:03:04.349Z,102086.16
2023-01-29T01:05:30.831Z,102090.44
2023-01-29T01:07:58.392Z,102092.16
2023-01-29T01:10:29.901Z,102086.16
2023-01-29T01:12:58.373Z,102087.03
2023-01-29T01:15:25.745Z,102091.31
2023-01-29T01:17:53.278Z,102090.50
2023-01-29T01:20:20.124Z,102089.56
2023-01-29T01:22:46.631Z,102094.75
2023-01-29T01:25:13.237Z,102082.75
2023-01-29T01:27:42.614Z,102084.41
2023-01-29T01:30:10.901Z,102086.13
2023-01-29T01:32:37.837Z,102095.63
2023-01-29T01:35:04.525Z,102093.03
2023-01-29T01:37:31.310Z,102076.75
2023-01-29T01:39:58.675Z,102072.44
2023-01-29T01:42:30.517Z,102081.88
2023-01-29T01:45:00.680Z,102079.28
2023-01-29T01:47:46.106Z,102086.19
2023-01-29T01:50:12.553Z,102092.16
2023-01-29T01:52:42.996Z,102095.63
2023-01-29T01:55:12.361Z,102097.31
2023-01-29T01:57:39.892Z,102089.56
2023-01-29T02:00:10.267Z,102080.13
2023-01-29T02:02:57.417Z,102068.97
2023-01-29T02:05:42.402Z,102068.97
2023-01-29T02:08:27.751Z,102073.25
2023-01-29T02:10:55.127Z,102063.84
2023-01-29T02:13:21.571Z,102060.44
2023-01-29T02:15:50.267Z,102051.00
2023-01-29T02:18:18.079Z,102054.44
2023-01-29T02:20:49.771Z,102056.16
2023-01-29T02:23:27.283Z,102054.44
2023-01-29T02:26:02.948Z,102053.56
2023-01-29T02:28:32.449Z,102048.44
2023-01-29T02:31:17.882Z,102046.72
2023-01-29T02:34:04.604Z,102038.16
2023-01-29T02:36:34.042Z,102049.28
2023-01-29T02:39:19.038Z,102050.16
2023-01-29T02:41:58.798Z,102056.16
2023-01-29T02:44:35.167Z,102060.47
2023-01-29T02:47:05.148Z,102068.16
2023-01-29T02:49:37.666Z,102059.59
2023-01-29T02:52:16.108Z,102055.31
2023-01-29T02:54:49.761Z,102050.19
2023-01-29T02:57:18.792Z,102038.16
2023-01-29T02:59:51.759Z,102039.03
2023-01-29T03:02:20.946Z,102033.03
2023-01-29T03:04:51.522Z,102031.31
2023-01-29T03:07:41.099Z,102026.16
2023-01-29T03:10:10.145Z,102030.44
2023-01-29T03:12:38.400Z,102041.59
2023-01-29T03:15:11.649Z,102037.34
2023-01-29T03:17:42.078Z,102033.88
2023-01-29T03:20:13.644Z,102029.59
2023-01-29T03:22:41.466Z,102023.59
2023-01-29T03:25:27.268Z,102029.59
2023-01-29T03:28:15.080Z,102030.47
2023-01-29T03:31:09.311Z,102033.03
2023-01-29T03:33:40.133Z,102022.75
2023-01-29T03:36:08.798Z,102024.47
2023-01-29T03:38:35.350Z,102016.75
2023-01-29T03:41:04.901Z,102008.16
2023-01-29T03:43:50.179Z,102009.84
2023-01-29T03:46:29.254Z,102010.72
2023-01-29T03:48:59.475Z,102003.00
2023-01-29T03:52:04.440Z,101992.72
2023-01-29T03:54:33.941Z,101984.16
2023-01-29T03:57:05.524Z,101979.84
2023-01-29T03:59:44.296Z,101980.72
2023-01-29T04:02:19.289Z,101976.44
2023-01-29T04:04:48.688Z,101974.72
2023-01-29T04:07:24.578Z,101959.28
2023-01-29T04:09:56.211Z,101954.13
2023-01-29T04:12:28.262Z,101944.69
2023-01-29T04:14:55.826Z,101933.56
2023-01-29T04:17:24.971Z,101932.69
2023-01-29T04:19:51.947Z,101926.69
2023-01-29T04:22:28.125Z,101924.97
2023-01-29T04:24:54.943Z,101928.41
2023-01-29T04:27:26.348Z,101926.66
2023-01-29T04:30:11.597Z,101924.06
2023-01-29T04:32:53.717Z,101916.38
2023-01-29T04:35:24.006Z,101912.97
2023-01-29T04:38:12.796Z,101892.34
2023-01-29T04:40:39.315Z,101894.97
2023-01-29T04:43:08.193Z,101899.25
2023-01-29T04:45:34.620Z,101894.97
2023-01-29T04:48:13.375Z,101903.56
2023-01-29T04:50:40.092Z,101911.25
2023-01-29T04:53:06.532Z,101913.81
2023-01-29T04:55:44.955Z,101910.38
2023-01-29T04:58:32.907Z,101906.13
2023-01-29T05:01:01.073Z,101902.69
2023-01-29T05:03:28.948Z,101894.09
2023-01-29T05:05:56.847Z,101904.38
2023-01-29T05:08:24.964Z,101902.66
2023-01-29T05:10:52.718Z,101902.63
2023-01-29T05:13:20.830Z,101905.22
2023-01-29T05:15:50.224Z,101911.22
2023-01-29T05:18:16.687Z,101910.38
2023-01-29T05:20:44.342Z,101921.50
2023-01-29T05:23:15.663Z,101924.00
2023-01-29T05:25:42.127Z,101925.75
2023-01-29T05:28:16.769Z,101918.91
2023-01-29T05:30:44.755Z,101916.31
2023-01-29T05:33:17.576Z,101912.88
2023-01-29T05:35:44.410Z,101915.44
2023-01-29T05:38:10.875Z,101914.59
2023-01-29T05:40:37.733Z,101911.19
2023-01-29T05:43:04.534Z,101923.19
2023-01-29T05:45:30.960Z,101919.78
2023-01-29T05:47:58.020Z,101921.47
2023-01-29T05:50:25.429Z,101922.31
2023-01-29T05:53:01.481Z,101924.88
2023-01-29T05:55:29.670Z,101924.88
2023-01-29T05:57:56.187Z,101930.84
2023-01-29T06:00:22.866Z,101933.47
2023-01-29T06:02:49.644Z,101938.59
2023-01-29T06:05:16.124Z,101943.75
2023-01-29T06:07:45.390Z,101938.59
2023-01-29T06:10:16.385Z,101941.22
2023-01-29T06:12:43.416Z,101948.06
2023-01-29T06:15:10.287Z,101947.22
2023-01-29T06:17:36.711Z,101951.50
2023-01-29T06:20:03.841Z,101958.34
2023-01-29T06:22:31.067Z,101954.06
2023-01-29T06:24:57.577Z,101956.66
2023-01-29T06:27:24.067Z,101956.66
2023-01-29T06:29:50.676Z,101942.06
2023-01-29T06:32:17.129Z,101947.25
2023-01-29T06:34:43.577Z,101936.94
2023-01-29T06:37:10.100Z,101948.09
2023-01-29T06:39:36.564Z,101947.22
2023-01-29T06:42:03.041Z,101943.75
2023-01-29T06:44:29.573Z,101943.75
2023-01-29T06:46:56.003Z,101948.94
2023-01-29T06:49:22.500Z,101939.47
2023-01-29T06:51:48.986Z,101950.59
2023-01-29T06:54:15.532Z,101952.34
2023-01-29T06:56:41.958Z,101958.31
2023-01-29T06:59:08.443Z,101960.03
2023-01-29T07:01:36.539Z,101966.88
2023-01-29T07:04:03.236Z,101956.59
2023-01-29T07:06:30.164Z,101943.72
2023-01-29T07:08:56.883Z,101945.44
2023-01-29T07:11:23.830Z,101942.03
2023-01-29T07:13:50.393Z,101942.00
2023-01-29T07:16:17.126Z,101937.69
2023-01-29T07:18:44.521Z,101952.25
2023-01-29T07:21:10.990Z,101942.78
2023-01-29T07:23:37.425Z,101935.06
2023-01-29T07:26:07.263Z,101935.97
2023-01-29T07:28:40.795Z,101942.84
2023-01-29T07:31:07.950Z,101938.53
2023-01-29T07:33:34.794Z,101939.41
2023-01-29T07:36:02.065Z,101946.22
2023-01-29T07:38:28.890Z,101959.09
2023-01-29T07:40:55.371Z,101947.09
2023-01-29T07:43:22.226Z,101948.84
2023-01-29T07:45:48.729Z,101951.38
2023-01-29T07:48:15.241Z,101947.06
2023-01-29T07:50:41.834Z,101937.63
2023-01-29T07:53:12.434Z,101933.34
2023-01-29T07:55:38.962Z,101917.97
2023-01-29T07:58:05.949Z,101898.22
2023-01-29T08:00:32.586Z,101899.84
2023-01-29T08:03:02.595Z,101911.94
2023-01-29T08:05:29.210Z,101910.19
2023-01-29T08:08:06.230Z,101920.47
2023-01-29T08:10:34.399Z,101919.56
2023-01-29T08:13:01.873Z,101918.75
2023-01-29T08:15:28.883Z,101914.41
2023-01-29T08:20:42.213Z,101903.19
2023-01-29T08:23:12.184Z,101904.09
2023-01-29T08:25:38.881Z,101901.53
2023-01-29T08:28:05.421Z,101898.88
2023-01-29T08:30:33.359Z,101892.13
2023-01-29T08:33:00.178Z,101895.59
2023-01-29T08:35:27.123Z,101898.06
2023-01-29T08:37:59.504Z,101897.19
2023-01-29T08:40:27.133Z,101892.91
2023-01-29T08:42:58.246Z,101890.31
2023-01-29T08:45:27.097Z,101901.53
2023-01-29T08:47:53.542Z,101909.13
2023-01-29T08:50:20.222Z,101901.47
2023-01-29T08:52:47.144Z,101907.44
2023-01-29T08:55:14.743Z,101901.44
2023-01-29T08:57:41.459Z,101904.81
2023-01-29T09:00:09.403Z,101907.44
2023-01-29T09:02:35.945Z,101898.03
2023-01-29T09:05:03.143Z,101894.50
2023-01-29T09:07:30.027Z,101897.00
2023-01-29T09:09:56.491Z,101891.03
2023-01-29T09:12:22.911Z,101883.25
2023-01-29T09:14:49.404Z,101874.59
2023-01-29T09:17:15.874Z,101884.88
2023-01-29T09:19:42.893Z,101887.31
2023-01-29T09:22:11.563Z,101889.06
2023-01-29T09:24:38.460Z,101888.06
2023-01-29T09:27:06.215Z,101885.44
2023-01-29T09:29:35.676Z,101891.44
2023-01-29T09:32:03.335Z,101886.94
2023-01-29T09:34:29.815Z,101891.38
2023-01-29T09:36:56.383Z,101886.22
2023-01-29T09:39:23.034Z,101882.66
2023-01-29T09:42:08.031Z,101885.28
2023-01-29T09:44:50.093Z,101885.13
2023-01-29T09:47:18.036Z,101872.38
2023-01-29T09:49:50.171Z,101872.44
2023-01-29T09:52:27.976Z,101870.63
2023-01-29T09:55:01.590Z,101864.31
2023-01-29T09:57:33.500Z,101860.97
2023-01-29T09:59:59.962Z,101862.34
2023-01-29T10:02:46.256Z,101851.63
2023-01-29T10:05:19.129Z,101846.47
2023-01-29T10:07:56.612Z,101841.94
2023-01-29T10:10:31.805Z,101824.25
2023-01-29T10:12:58.314Z,101832.50
2023-01-29T10:15:35.205Z,101838.78
2023-01-29T10:18:10.690Z,101825.25
2023-01-29T10:20:46.284Z,101820.13
2023-01-29T10:39:25.494Z,101830.47
2023-01-29T10:41:54.735Z,101831.47
2023-01-29T10:44:21.182Z,101825.50
2023-01-29T10:46:53.987Z,101824.19
2023-01-29T10:49:26.706Z,101824.63
2023-01-29T10:52:14.129Z,101812.25
2023-01-29T11:56:47.922Z,101725.19
2023-01-29T11:59:34.608Z,101725.91
2023-01-29T12:02:05.858Z,101722.31
2023-01-29T12:04:32.426Z,101723.00
2023-01-29T12:06:58.914Z,101717.81
2023-01-29T12:09:28.314Z,101705.34
2023-01-29T12:11:54.810Z,101713.84
2023-01-29T12:14:26.986Z,101704.00
2023-01-29T12:16:59.675Z,101697.09
2023-01-29T12:19:40.573Z,101692.22
2023-01-29T12:22:14.704Z,101692.91
2023-01-29T12:24:50.383Z,101686.00
2023-01-29T12:27:22.627Z,101685.94
2023-01-29T12:30:02.962Z,101674.09
2023-01-29T12:32:38.601Z,101678.16
2023-01-29T12:35:11.280Z,101678.84
2023-01-29T12:37:37.732Z,101678.56
2023-01-29T12:40:11.216Z,101675.63
2023-01-29T12:42:40.461Z,101664.13
2023-01-29T12:45:10.903Z,101654.91
2023-01-29T12:47:39.861Z,101641.88
2023-01-29T12:50:25.128Z,101639.31
2023-01-29T12:52:59.513Z,101638.50
2023-01-29T12:55:39.592Z,101640.53
2023-01-29T12:58:16.777Z,101640.53
2023-01-29T13:00:45.650Z,101645.22
2023-01-29T13:03:26.531Z,101647.38
2023-01-29T13:06:12.069Z,101641.22
2023-01-29T13:08:41.449Z,101638.75
2023-01-29T13:11:23.509Z,101629.69
2023-01-29T13:13:54.377Z,101632.31
2023-01-29T13:16:25.262Z,101634.41
2023-01-29T13:18:55.356Z,101634.97
2023-01-29T13:21:24.442Z,101631.78
2023-01-29T13:23:56.658Z,101633.97
2023-01-29T13:26:23.648Z,101632.13
2023-01-29T13:28:51.650Z,101625.69
2023-01-29T13:31:28.937Z,101621.66
2023-01-29T13:34:28.571Z,101623.50
2023-01-29T13:36:57.235Z,101626.06
2023-01-29T13:39:31.365Z,101621.63
2023-01-29T13:41:59.133Z,101621.53
2023-01-29T13:44:32.765Z,101627.22
2023-01-29T13:47:00.720Z,101620.25
2023-01-29T13:49:39.365Z,101617.06
2023-01-29T13:52:17.502Z,101616.19
2023-01-29T13:54:50.941Z,101611.25
2023-01-29T13:57:35.091Z,101611.91
2023-01-29T14:00:01.676Z,101601.59
2023-01-29T14:02:29.333Z,101604.13
2023-01-29T14:05:15.043Z,101601.50
2023-01-29T14:07:44.826Z,101599.94
2023-01-29T14:10:19.328Z,101593.13
2023-01-29T14:12:46.564Z,101590.84
2023-01-29T14:15:22.088Z,101589.22
2023-01-29T14:17:55.807Z,101585.78
2023-01-29T14:20:32.350Z,101591.13
2023-01-29T14:23:06.462Z,101585.31
2023-01-29T14:25:38.516Z,101580.00
2023-01-29T14:28:13.663Z,101582.41
2023-01-29T14:30:41.327Z,101579.22
2023-01-29T14:33:22.644Z,101574.19
2023-01-29T14:35:50.642Z,101581.84
2023-01-29T14:38:17.577Z,101581.88
2023-01-29T14:40:45.890Z,101576.72
2023-01-29T14:43:30.668Z,101562.13
2023-01-29T14:46:17.069Z,101552.16
2023-01-29T14:48:48.742Z,101561.75
2023-01-29T14:51:16.687Z,101556.38
2023-01-29T14:53:45.737Z,101563.88
2023-01-29T14:56:26.311Z,101552.97
2023-01-29T14:58:56.241Z,101553.00
2023-01-29T15:01:30.792Z,101550.31
2023-01-29T15:04:02.978Z,101552.28
2023-01-29T15:06:34.196Z,101537.44
2023-01-29T15:09:13.017Z,101536.50
2023-01-29T15:11:51.535Z,101541.78
2023-01-29T15:14:24.193Z,101544.78
2023-01-29T15:16:54.414Z,101540.19
2023-01-29T15:19:44.949Z,101537.00
2023-01-29T15:22:21.891Z,101521.53
2023-01-29T15:25:02.026Z,101523.50
2023-01-29T15:27:28.947Z,101521.13
2023-01-29T15:30:00.133Z,101520.16
2023-01-29T15:32:28.862Z,101520.75
2023-01-29T15:34:56.920Z,101521.72
2023-01-29T15:37:27.375Z,101499.72
2023-01-29T15:39:53.947Z,101519.41
2023-01-29T15:42:25.699Z,101509.03
2023-01-29T15:44:54.664Z,101513.22
2023-01-29T15:47:23.880Z,101498.47
2023-01-29T15:49:50.520Z,101496.16
2023-01-29T15:52:27.952Z,101503.00
2023-01-29T15:54:56.497Z,101492.75
2023-01-29T15:57:24.633Z,101489.63
2023-01-29T15:59:52.425Z,101487.78
2023-01-29T16:02:29.505Z,101490.34
2023-01-29T16:04:56.149Z,101486.75
2023-01-29T16:07:22.772Z,101488.28
2023-01-29T16:09:49.865Z,101489.34
2023-01-29T16:12:16.400Z,101480.78
2023-01-29T16:14:43.592Z,101485.03
2023-01-29T16:17:10.680Z,101477.13
2023-01-29T16:19:37.142Z,101480.03
2023-01-29T16:22:05.014Z,101471.34
2023-01-29T16:24:32.498Z,101476.66
2023-01-29T16:27:16.792Z,101471.41
2023-01-29T16:29:43.273Z,101471.34
2023-01-29T16:32:12.391Z,101471.47
2023-01-29T16:34:40.820Z,101465.31
2023-01-29T16:37:25.401Z,101463.56
2023-01-29T16:39:52.854Z,101469.53
2023-01-29T16:42:22.271Z,101471.16
2023-01-29T16:44:48.681Z,101464.50
2023-01-29T16:47:23.626Z,101461.88
2023-01-29T16:49:54.073Z,101473.06
2023-01-29T16:52:25.345Z,101459.41
2023-01-29T16:54:52.050Z,101462.22
2023-01-29T16:57:21.611Z,101471.34
2023-01-29T16:59:48.201Z,101466.00
2023-01-29T17:02:22.593Z,101472.00
2023-01-29T17:04:49.395Z,101462.00
2023-01-29T17:07:22.076Z,101469.41
2023-01-29T17:09:52.970Z,101461.78
2023-01-29T17:12:21.157Z,101465.19
2023-01-29T17:15:00.231Z,101459.16
2023-01-29T17:17:30.934Z,101448.75
2023-01-29T17:19:58.208Z,101445.47
2023-01-29T17:22:24.803Z,101442.22
2023-01-29T17:24:51.637Z,101432.97
2023-01-29T17:27:19.487Z,101433.91
2023-01-29T17:29:45.973Z,101431.25
2023-01-29T17:32:13.036Z,101432.06
2023-01-29T17:34:39.633Z,101427.00
2023-01-29T17:37:06.084Z,101418.19
2023-01-29T17:39:32.576Z,101421.38
2023-01-29T17:41:59.140Z,101410.38
2023-01-29T17:44:28.588Z,101410.47
2023-01-29T17:46:55.149Z,101401.72
2023-01-29T17:49:23.409Z,101395.88
2023-01-29T17:51:50.676Z,101401.81
2023-01-29T17:54:17.117Z,101390.16
2023-01-29T17:56:43.667Z,101383.94
2023-01-29T17:59:22.431Z,101387.81
2023-01-29T18:08:55.407Z,101368.31
2023-01-29T18:11:49.782Z,101360.59
2023-01-29T18:18:03.158Z,101349.44
2023-01-29T18:26:56.604Z,101338.31
2023-01-29T18:35:47.566Z,101339.78
2023-01-29T18:42:10.207Z,101325.19
2023-01-29T18:45:45.959Z,101322.56
2023-01-29T18:51:45.970Z,101319.84
2023-01-29T18:54:51.592Z,101323.31
2023-01-29T18:58:28.251Z,101327.59
2023-01-29T19:02:10.203Z,101318.22
2023-01-29T19:14:47.794Z,101296.75
2023-01-29T19:17:56.023Z,101296.91
2023-01-29T19:24:48.690Z,101271.81
2023-01-29T19:28:05.115Z,101276.91
2023-01-29T19:50:33.009Z,101237.34
2023-01-29T20:16:40.893Z,101203.03
2023-01-29T20:26:16.199Z,101179.47
2023-01-29T20:32:59.785Z,101163.13
2023-01-29T22:07:45.258Z,101009.94
2023-01-29T22:10:12.492Z,101007.88
2023-01-29T22:12:39.451Z,100998.38
2023-01-29T22:15:06.712Z,100989.81
2023-01-29T22:17:33.238Z,100979.75
2023-01-29T22:19:59.710Z,100982.09
2023-01-29T22:23:07.350Z,100971.63
2023-01-29T22:41:13.032Z,100927.16
2023-01-29T23:16:42.561Z,100867.63
2023-01-29T23:38:16.547Z,100836.75
2023-01-29T23:47:32.336Z,100805.25
